Time;durP1;ratioP1;P1;durP2;ratioP2;P2;SDS_P1;SDS_P2;PMS_P1;PMS_P2;Temp;Humidity;BMP_temperature;BMP_pressure;BME280_temperature;BME280_humidity;BME280_pressure;Samples;Min_cycle;Max_cycle;Signal;HPM_P1;HPM_P2
2021/06/26 00:02:08;;;;;;;9.70;4.05;;;;;;;23.04;42.60;101036.06;4398115;32;20046;-75
2021/06/26 00:04:34;;;;;;;12.70;4.32;;;;;;;23.06;42.26;101022.75;4413834;32;20206;-75
2021/06/26 00:07:00;;;;;;;11.60;4.47;;;;;;;23.04;42.37;101028.19;4412716;32;20157;-72
2021/06/26 00:09:26;;;;;;;12.82;4.30;;;;;;;23.13;42.21;101019.34;4411681;32;20074;-75
2021/06/26 00:11:51;;;;;;;10.40;4.22;;;;;;;23.05;42.47;101029.78;4413083;32;20403;-75
2021/06/26 00:14:17;;;;;;;12.20;4.37;;;;;;;23.10;42.51;101025.38;4411118;32;20046;-73
2021/06/26 00:16:43;;;;;;;10.35;4.43;;;;;;;22.84;42.59;101016.16;4411620;32;20068;-75
2021/06/26 00:19:09;;;;;;;11.00;4.62;;;;;;;23.04;42.19;101024.56;4412417;32;20022;-73
2021/06/26 00:21:34;;;;;;;10.02;4.40;;;;;;;22.97;42.50;101022.97;4409540;32;20037;-74
2021/06/26 00:24:00;;;;;;;11.90;4.62;;;;;;;23.00;42.38;101015.41;4413026;32;20242;-75
2021/06/26 00:26:26;;;;;;;8.65;4.10;;;;;;;22.78;42.72;101021.09;4414020;32;20094;-73
2021/06/26 00:28:53;;;;;;;6.90;4.18;;;;;;;22.59;42.95;101023.63;4410157;32;20551;-74
2021/06/26 00:31:19;;;;;;;11.90;4.50;;;;;;;22.76;42.84;101017.94;4409939;32;20094;-74
2021/06/26 00:33:45;;;;;;;10.55;4.53;;;;;;;22.83;42.71;101023.97;4411339;32;20034;-74
2021/06/26 00:36:11;;;;;;;12.18;4.68;;;;;;;22.94;42.76;101026.09;4414033;32;20085;-73
2021/06/26 00:38:37;;;;;;;9.30;5.43;;;;;;;23.03;42.55;101022.97;4413545;32;20057;-72
2021/06/26 00:41:04;;;;;;;17.52;4.40;;;;;;;23.02;42.56;101022.22;4410657;32;20055;-72
2021/06/26 00:43:30;;;;;;;13.48;4.50;;;;;;;23.02;42.69;101035.78;4412117;32;20362;-73
2021/06/26 00:46:00;;;;;;;11.20;4.82;;;;;;;23.00;42.36;101026.87;4412267;32;20042;-72
2021/06/26 00:48:25;;;;;;;14.35;4.78;;;;;;;23.38;42.04;101032.72;4411066;32;20042;-74
2021/06/26 00:50:51;;;;;;;12.00;4.62;;;;;;;23.16;42.75;101037.63;4410237;32;20549;-73
2021/06/26 00:53:17;;;;;;;12.02;4.80;;;;;;;22.80;43.36;101025.00;4410869;32;20400;-74
2021/06/26 00:55:51;;;;;;;11.82;5.07;;;;;;;22.96;42.94;101032.09;4413742;32;21284;-74
2021/06/26 00:58:22;;;;;;;9.43;4.93;;;;;;;23.03;42.62;101040.19;4413238;32;20093;-75
2021/06/26 01:00:49;;;;;;;9.57;4.72;;;;;;;23.15;42.80;101030.31;4408508;32;20527;-72
2021/06/26 01:03:16;;;;;;;9.10;4.20;;;;;;;23.27;42.26;101029.06;4412107;32;20104;-72
2021/06/26 01:05:41;;;;;;;10.35;4.60;;;;;;;23.22;42.30;101029.81;4411759;32;20078;-74
2021/06/26 01:08:07;;;;;;;11.25;4.53;;;;;;;23.09;42.61;101041.00;4399566;32;20101;-74
2021/06/26 01:10:34;;;;;;;12.30;5.20;;;;;;;23.35;42.29;101041.63;4409009;32;20089;-72
2021/06/26 01:13:00;;;;;;;9.55;4.50;;;;;;;23.28;42.42;101042.12;4410632;32;20472;-72
2021/06/26 01:15:26;;;;;;;10.07;5.05;;;;;;;22.94;43.04;101037.56;4412012;32;20072;-72
2021/06/26 01:17:52;;;;;;;7.87;4.75;;;;;;;22.98;43.12;101036.00;4411289;32;20418;-72
2021/06/26 01:20:18;;;;;;;10.52;4.97;;;;;;;23.13;42.84;101042.31;4411323;32;20065;-73
2021/06/26 01:22:46;;;;;;;12.20;5.70;;;;;;;23.02;42.47;101041.53;4410016;32;20097;-72
2021/06/26 01:25:16;;;;;;;11.15;4.97;;;;;;;23.01;42.90;101043.59;4412939;32;20093;-72
2021/06/26 01:27:43;;;;;;;9.75;4.90;;;;;;;23.10;43.00;101036.84;4414051;32;20045;-74
2021/06/26 01:30:11;;;;;;;9.77;5.00;;;;;;;23.13;43.09;101038.66;4409808;32;20073;-74
2021/06/26 01:32:38;;;;;;;10.43;5.05;;;;;;;23.21;42.76;101042.59;4408849;32;20100;-74
2021/06/26 01:35:04;;;;;;;9.52;5.15;;;;;;;23.16;42.83;101047.03;4412362;32;20607;-74
2021/06/26 01:37:30;;;;;;;10.00;5.53;;;;;;;23.15;42.93;101051.22;4411311;32;20064;-74
2021/06/26 01:39:55;;;;;;;6.25;4.50;;;;;;;23.05;43.17;101043.34;4412764;32;20137;-73
2021/06/26 01:42:21;;;;;;;9.60;4.70;;;;;;;22.87;43.26;101041.75;4412655;32;21116;-74
2021/06/26 01:44:47;;;;;;;8.63;4.90;;;;;;;22.99;43.42;101036.81;4409020;32;20042;-72
2021/06/26 01:47:12;;;;;;;7.37;5.25;;;;;;;23.05;43.29;101034.75;4408331;32;20042;-73
2021/06/26 01:49:40;;;;;;;9.30;4.97;;;;;;;23.08;43.17;101039.44;4409552;32;20088;-74
2021/06/26 01:52:09;;;;;;;10.60;5.57;;;;;;;23.31;42.84;101038.19;4398115;32;20050;-72
2021/06/26 01:54:37;;;;;;;10.07;4.65;;;;;;;23.37;43.00;101031.19;4411491;32;20391;-73
2021/06/26 01:57:05;;;;;;;12.73;5.03;;;;;;;23.29;43.03;101037.97;4411171;32;20065;-73
2021/06/26 01:59:31;;;;;;;9.55;4.80;;;;;;;23.15;43.64;101028.25;4410032;32;20104;-73
2021/06/26 02:01:57;;;;;;;9.50;5.15;;;;;;;23.02;43.29;101035.78;4407294;32;20050;-73
2021/06/26 02:04:22;;;;;;;6.57;4.60;;;;;;;23.11;43.33;101044.16;4410480;32;20058;-72
2021/06/26 02:06:48;;;;;;;9.18;5.25;;;;;;;23.07;42.96;101040.75;4409630;32;20454;-73
2021/06/26 02:09:15;;;;;;;6.93;3.80;;;;;;;23.10;43.19;101049.09;4412607;32;20419;-72
2021/06/26 02:11:41;;;;;;;8.55;4.20;;;;;;;23.14;43.04;101049.63;4407020;32;20143;-72
2021/06/26 02:14:07;;;;;;;10.63;4.60;;;;;;;22.90;43.35;101048.53;4410074;32;20442;-73
2021/06/26 02:16:33;;;;;;;9.45;5.07;;;;;;;23.08;43.11;101048.06;4407953;32;20443;-73
2021/06/26 02:18:59;;;;;;;12.70;4.75;;;;;;;23.15;43.03;101045.47;4411642;32;20441;-73
2021/06/26 02:21:24;;;;;;;7.80;3.87;;;;;;;23.10;43.26;101048.34;4408298;32;20543;-73
2021/06/26 02:23:51;;;;;;;7.70;4.50;;;;;;;23.12;43.24;101043.63;4411123;32;20089;-73
2021/06/26 02:26:17;;;;;;;12.82;4.55;;;;;;;22.95;43.75;101044.91;4409766;32;20080;-73
2021/06/26 02:28:43;;;;;;;6.85;4.05;;;;;;;22.99;43.35;101051.16;4409315;32;20116;-74
2021/06/26 02:31:08;;;;;;;6.60;4.32;;;;;;;22.94;43.53;101049.06;4407289;32;20437;-72
2021/06/26 02:33:34;;;;;;;4.85;4.03;;;;;;;23.08;43.46;101048.84;4411708;32;20042;-74
2021/06/26 02:36:00;;;;;;;10.07;4.47;;;;;;;23.06;43.54;101050.66;4410581;32;20390;-73
2021/06/26 02:38:26;;;;;;;6.18;4.15;;;;;;;23.23;43.16;101052.28;4412696;32;20083;-74
2021/06/26 02:40:52;;;;;;;7.82;3.85;;;;;;;23.15;43.12;101045.47;4409927;32;20470;-73
2021/06/26 02:43:19;;;;;;;8.30;3.90;;;;;;;23.11;43.16;101035.53;4412006;32;20328;-73
2021/06/26 02:45:46;;;;;;;7.70;4.68;;;;;;;23.17;43.07;101039.22;4410868;32;20503;-71
2021/06/26 02:48:13;;;;;;;7.35;4.30;;;;;;;23.39;42.81;101036.41;4409194;32;20042;-72
2021/06/26 02:50:41;;;;;;;9.25;4.40;;;;;;;23.20;43.08;101041.03;4408581;32;20069;-72
2021/06/26 02:53:07;;;;;;;5.60;4.28;;;;;;;23.28;42.66;101040.03;4409071;32;20144;-73
2021/06/26 02:55:33;;;;;;;6.95;4.82;;;;;;;23.18;43.34;101038.69;4411665;32;20077;-74
2021/06/26 02:57:59;;;;;;;6.62;4.55;;;;;;;23.19;43.04;101037.37;4399918;32;20429;-72
2021/06/26 03:00:25;;;;;;;7.78;4.53;;;;;;;23.12;42.97;101040.75;4407896;32;20725;-73
2021/06/26 03:02:51;;;;;;;7.87;4.43;;;;;;;23.07;43.30;101041.53;4405520;32;20141;-72
2021/06/26 03:05:17;;;;;;;9.63;5.03;;;;;;;23.08;43.22;101045.97;4411072;32;20085;-73
2021/06/26 03:07:52;;;;;;;10.65;5.25;;;;;;;23.25;42.85;101046.81;4411859;32;20025;-74
2021/06/26 03:10:18;;;;;;;9.33;4.60;;;;;;;23.56;42.42;101050.78;4407824;32;20074;-72
2021/06/26 03:12:45;;;;;;;7.07;4.97;;;;;;;23.32;42.89;101043.44;4409095;32;20072;-74
2021/06/26 03:15:11;;;;;;;7.22;4.53;;;;;;;23.39;42.64;101045.03;4411366;32;20038;-72
2021/06/26 03:17:37;;;;;;;8.50;4.22;;;;;;;23.37;42.77;101051.28;4410825;32;20099;-73
2021/06/26 03:20:05;;;;;;;8.68;4.50;;;;;;;23.45;42.45;101042.94;4411901;32;20106;-74
2021/06/26 03:22:31;;;;;;;8.40;4.62;;;;;;;23.38;42.67;101046.34;4409688;32;20081;-72
2021/06/26 03:24:57;;;;;;;8.23;4.25;;;;;;;23.11;42.87;101050.66;4411595;32;20106;-72
2021/06/26 03:27:23;;;;;;;6.65;4.15;;;;;;;23.16;43.18;101044.16;4413575;32;20076;-74
2021/06/26 03:29:48;;;;;;;9.15;4.25;;;;;;;23.22;42.97;101044.94;4412702;32;20038;-75
2021/06/26 03:32:14;;;;;;;5.75;3.97;;;;;;;23.06;43.37;101057.19;4410905;32;20135;-72
2021/06/26 03:34:40;;;;;;;5.32;3.95;;;;;;;22.91;43.46;101047.22;4415655;32;20046;-74
2021/06/26 03:37:06;;;;;;;7.32;4.25;;;;;;;23.05;43.22;101049.09;4411033;32;20060;-73
2021/06/26 03:39:32;;;;;;;10.13;4.43;;;;;;;22.98;43.38;101043.87;4412830;32;20076;-73
2021/06/26 03:41:57;;;;;;;5.62;3.70;;;;;;;22.57;44.00;101045.50;4414473;32;20065;-73
2021/06/26 03:44:23;;;;;;;10.73;4.32;;;;;;;22.80;43.65;101039.34;4413380;32;20627;-73
2021/06/26 03:46:49;;;;;;;7.25;4.68;;;;;;;22.27;44.39;101038.56;4413506;32;20436;-73
2021/06/26 03:49:14;;;;;;;8.95;5.03;;;;;;;22.28;44.91;101049.50;4413301;32;20080;-74
2021/06/26 03:51:40;;;;;;;7.62;4.03;;;;;;;22.48;44.51;101051.44;4409670;32;20129;-73
2021/06/26 03:54:06;;;;;;;9.60;4.60;;;;;;;22.49;44.42;101041.53;4412532;32;20720;-74
2021/06/26 03:56:32;;;;;;;7.00;4.53;;;;;;;22.59;44.30;101049.44;4414185;32;20474;-72
2021/06/26 03:58:59;;;;;;;10.32;4.70;;;;;;;22.47;44.69;101055.59;4413868;32;20624;-72
2021/06/26 04:01:26;;;;;;;8.10;4.70;;;;;;;22.53;44.56;101048.62;4410654;32;20125;-73
2021/06/26 04:03:51;;;;;;;7.57;4.75;;;;;;;22.80;44.13;101042.22;4410737;32;20470;-74
2021/06/26 04:06:17;;;;;;;8.18;4.93;;;;;;;22.54;44.64;101040.78;4412665;32;20816;-72
2021/06/26 04:08:43;;;;;;;7.05;4.32;;;;;;;22.66;44.10;101045.28;4411802;32;20046;-74
2021/06/26 04:11:09;;;;;;;8.10;5.30;;;;;;;22.83;43.89;101044.06;4413405;32;20121;-74
2021/06/26 04:13:35;;;;;;;6.75;4.78;;;;;;;22.91;44.08;101045.12;4412450;32;20129;-72
2021/06/26 04:16:04;;;;;;;7.85;4.37;;;;;;;22.96;43.77;101047.25;4412405;32;20104;-72
2021/06/26 04:18:29;;;;;;;10.75;4.87;;;;;;;23.06;43.78;101042.03;4412194;32;20046;-72
2021/06/26 04:20:55;;;;;;;7.72;5.00;;;;;;;23.07;43.24;101043.63;4410388;32;20096;-75
2021/06/26 04:23:21;;;;;;;5.68;4.43;;;;;;;23.07;43.29;101040.75;4415297;32;20192;-74
2021/06/26 04:25:48;;;;;;;8.13;4.62;;;;;;;23.12;43.29;101045.72;4414981;32;20104;-73
2021/06/26 04:28:14;;;;;;;10.70;8.20;;;;;;;23.27;43.12;101052.84;4414060;32;20076;-72
2021/06/26 04:30:40;;;;;;;6.80;4.97;;;;;;;23.30;43.26;101051.00;4414239;32;20050;-74
2021/06/26 04:33:06;;;;;;;8.88;4.57;;;;;;;23.29;43.07;101049.44;4415275;32;20096;-73
2021/06/26 04:35:32;;;;;;;4.97;4.15;;;;;;;23.39;42.76;101063.03;4414586;32;20046;-74
2021/06/26 04:37:58;;;;;;;7.75;4.03;;;;;;;23.42;42.77;101053.38;4411960;32;20088;-73
2021/06/26 04:40:24;;;;;;;7.40;4.40;;;;;;;23.57;42.52;101055.22;4414846;32;20026;-73
2021/06/26 04:42:52;;;;;;;5.65;4.40;;;;;;;23.60;42.51;101054.97;4414332;32;20426;-72
2021/06/26 04:45:18;;;;;;;11.07;5.15;;;;;;;23.30;42.75;101056.75;4411302;32;20056;-72
2021/06/26 04:47:44;;;;;;;7.18;4.47;;;;;;;23.54;42.68;101054.19;4414694;32;20065;-73
2021/06/26 04:50:11;;;;;;;8.27;4.57;;;;;;;23.66;42.27;101054.97;4410497;32;20054;-75
2021/06/26 04:52:39;;;;;;;5.95;4.65;;;;;;;23.80;42.06;101057.56;4412690;32;20103;-72
2021/06/26 04:55:05;;;;;;;5.07;4.53;;;;;;;23.94;41.80;101056.53;4412705;32;20034;-72
2021/06/26 04:57:31;;;;;;;6.22;4.30;;;;;;;23.93;42.00;101060.69;4400753;32;20354;-73
2021/06/26 04:59:56;;;;;;;6.50;5.03;;;;;;;23.87;41.49;101054.16;4412430;32;20097;-72
2021/06/26 05:02:22;;;;;;;6.62;4.47;;;;;;;23.93;41.61;101054.19;4409781;32;20432;-72
2021/06/26 05:04:48;;;;;;;6.90;4.50;;;;;;;24.10;41.26;101052.88;4412010;32;20135;-71
2021/06/26 05:07:14;;;;;;;5.62;4.05;;;;;;;23.99;41.37;101055.00;4414876;32;20054;-74
2021/06/26 05:09:39;;;;;;;7.47;4.35;;;;;;;23.93;41.11;101054.94;4411004;32;20084;-73
2021/06/26 05:12:06;;;;;;;4.60;4.05;;;;;;;24.04;41.25;101054.97;4408929;32;20030;-74
2021/06/26 05:14:32;;;;;;;6.03;3.83;;;;;;;24.09;41.19;101054.19;4410227;32;20069;-72
2021/06/26 05:16:58;;;;;;;4.25;3.15;;;;;;;24.12;40.85;101055.22;4411608;32;20106;-74
2021/06/26 05:19:24;;;;;;;4.55;3.75;;;;;;;24.37;40.72;101054.13;4412249;32;20042;-73
2021/06/26 05:21:50;;;;;;;6.03;3.60;;;;;;;24.40;40.35;101056.75;4411981;32;20046;-73
2021/06/26 05:24:16;;;;;;;5.60;3.83;;;;;;;24.22;40.70;101063.06;4412332;32;20089;-72
2021/06/26 05:26:42;;;;;;;5.62;3.95;;;;;;;24.12;40.48;101073.28;4415364;32;20347;-72
2021/06/26 05:29:08;;;;;;;4.43;3.05;;;;;;;24.22;40.64;101070.87;4410217;32;20073;-71
2021/06/26 05:31:33;;;;;;;4.45;3.10;;;;;;;24.45;40.37;101064.56;4410892;32;20069;-75
2021/06/26 05:33:59;;;;;;;4.90;3.60;;;;;;;24.53;39.95;101064.81;4413225;32;20042;-74
2021/06/26 05:36:25;;;;;;;6.07;3.87;;;;;;;24.30;40.39;101074.81;4411693;32;20741;-72
2021/06/26 05:38:51;;;;;;;5.95;3.70;;;;;;;24.31;40.54;101076.38;4412767;32;20093;-72
2021/06/26 05:41:17;;;;;;;4.70;3.85;;;;;;;24.49;40.23;101075.81;4410557;32;20069;-72
2021/06/26 05:43:43;;;;;;;5.00;3.58;;;;;;;24.55;39.75;101079.44;4410064;32;20045;-74
2021/06/26 05:46:08;;;;;;;5.70;3.90;;;;;;;24.67;39.98;101081.78;4411328;32;20085;-75
2021/06/26 05:48:34;;;;;;;6.95;3.62;;;;;;;24.72;39.67;101081.00;4412136;32;20086;-75
2021/06/26 05:51:00;;;;;;;3.58;3.12;;;;;;;24.87;39.72;101081.47;4411018;32;20442;-72
2021/06/26 05:53:25;;;;;;;4.57;2.90;;;;;;;25.04;39.32;101081.37;4401247;32;20046;-72
2021/06/26 05:56:06;;;;;;;4.47;3.42;;;;;;;25.10;38.81;101085.03;4413441;32;20119;-71
2021/06/26 05:58:36;;;;;;;6.25;3.30;;;;;;;25.05;38.75;101083.75;4409873;32;20120;-72
2021/06/26 06:01:03;;;;;;;7.93;2.60;;;;;;;25.32;38.60;101088.56;4408742;32;20630;-72
2021/06/26 06:03:29;;;;;;;6.60;2.97;;;;;;;25.42;38.29;101089.03;4411304;32;20069;-75
2021/06/26 06:05:55;;;;;;;3.65;3.03;;;;;;;25.37;38.09;101099.28;4410157;32;20117;-73
2021/06/26 06:08:21;;;;;;;4.75;3.00;;;;;;;25.22;37.88;101113.22;4411849;32;20105;-73
2021/06/26 06:10:47;;;;;;;4.43;3.50;;;;;;;25.21;38.63;101110.88;4411663;32;20082;-73
2021/06/26 06:13:15;;;;;;;5.22;3.10;;;;;;;25.19;38.54;101113.53;4412770;32;20060;-72
2021/06/26 06:15:43;;;;;;;5.68;2.97;;;;;;;25.37;38.23;101112.13;4408754;32;20074;-75
2021/06/26 06:18:11;;;;;;;4.50;2.50;;;;;;;25.51;38.07;101106.03;4411015;32;20104;-75
2021/06/26 06:20:37;;;;;;;4.12;2.60;;;;;;;25.56;38.05;101108.09;4408128;32;20190;-74
2021/06/26 06:23:04;;;;;;;3.62;2.62;;;;;;;25.47;37.98;101105.53;4410196;32;20118;-72
2021/06/26 06:25:31;;;;;;;5.70;2.60;;;;;;;25.29;38.73;101112.69;4411520;32;20317;-73
2021/06/26 06:27:57;;;;;;;4.50;2.62;;;;;;;25.64;37.83;101111.19;4408148;32;20081;-74
2021/06/26 06:30:23;;;;;;;7.57;4.20;;;;;;;25.81;37.58;101120.47;4411592;32;20077;-71
2021/06/26 06:32:48;;;;;;;3.58;2.78;;;;;;;25.85;37.19;101118.09;4408758;32;20050;-73
2021/06/26 06:35:14;;;;;;;6.15;2.72;;;;;;;25.99;36.98;101123.53;4412987;32;20088;-73
2021/06/26 06:37:40;;;;;;;3.03;2.22;;;;;;;26.15;36.68;101125.47;4407765;32;20138;-74
2021/06/26 06:40:07;;;;;;;3.92;2.45;;;;;;;26.18;36.26;101120.72;4412196;32;20098;-75
2021/06/26 06:42:35;;;;;;;5.45;2.65;;;;;;;26.37;36.06;101133.13;4411150;32;20068;-71
2021/06/26 06:45:01;;;;;;;5.72;2.40;;;;;;;26.61;35.51;101130.28;4411757;32;20465;-75
2021/06/26 06:47:27;;;;;;;5.35;2.50;;;;;;;26.62;35.60;101131.84;4408742;32;20057;-73
2021/06/26 06:49:52;;;;;;;3.22;2.20;;;;;;;26.61;35.56;101127.38;4409896;32;20109;-73
2021/06/26 06:52:18;;;;;;;3.62;2.20;;;;;;;26.69;35.43;101125.50;4407924;32;20059;-75
2021/06/26 06:54:44;;;;;;;2.00;1.83;;;;;;;26.76;35.16;101131.47;4413936;32;20037;-73
2021/06/26 06:57:10;;;;;;;5.65;2.60;;;;;;;26.50;35.54;101122.50;4414198;32;20362;-72
2021/06/26 06:59:37;;;;;;;2.85;2.45;;;;;;;26.38;35.51;101123.19;4411585;32;20076;-74
2021/06/26 07:02:02;;;;;;;4.85;2.30;;;;;;;26.74;34.91;101122.53;4396040;32;20093;-74
2021/06/26 07:04:28;;;;;;;4.78;2.45;;;;;;;26.64;35.15;101123.44;4398094;32;20096;-75
2021/06/26 07:06:54;;;;;;;5.93;2.62;;;;;;;26.24;35.98;101124.34;4400711;32;20081;-73
2021/06/26 07:09:20;;;;;;;4.87;2.58;;;;;;;26.67;35.46;101125.25;4398800;32;20038;-74
2021/06/26 07:11:46;;;;;;;5.20;2.17;;;;;;;26.77;35.35;101126.44;4399203;32;20083;-74
2021/06/26 07:14:12;;;;;;;3.87;1.83;;;;;;;26.98;34.71;101131.19;4400457;32;20088;-75
2021/06/26 07:16:37;;;;;;;2.85;2.00;;;;;;;27.18;34.18;101126.97;4397848;32;20039;-73
2021/06/26 07:19:03;;;;;;;2.33;1.90;;;;;;;27.12;34.17;101135.72;4398527;32;20072;-73
2021/06/26 07:21:30;;;;;;;2.65;1.80;;;;;;;26.87;34.51;101131.31;4398265;32;20077;-73
2021/06/26 07:23:56;;;;;;;5.65;1.87;;;;;;;27.01;34.15;101135.09;4400543;32;20074;-76
2021/06/26 07:26:22;;;;;;;2.05;1.87;;;;;;;27.04;34.13;101131.13;4398682;32;20065;-75
2021/06/26 07:28:48;;;;;;;1.60;1.50;;;;;;;27.23;34.29;101129.81;4396994;32;20472;-75
2021/06/26 07:31:14;;;;;;;4.30;1.50;;;;;;;27.22;33.49;101136.13;4396898;32;20093;-75
2021/06/26 07:33:39;;;;;;;3.78;1.95;;;;;;;27.48;33.34;101145.00;4398650;32;20101;-75
2021/06/26 07:36:05;;;;;;;2.33;2.10;;;;;;;26.97;33.92;101135.37;4397898;32;20038;-74
2021/06/26 07:38:31;;;;;;;2.40;1.92;;;;;;;26.52;33.98;101136.41;4400800;32;20090;-75
2021/06/26 07:40:57;;;;;;;3.28;2.25;;;;;;;26.83;33.63;101138.72;4398731;32;20085;-74
2021/06/26 07:43:23;;;;;;;4.97;1.80;;;;;;;27.11;33.71;101134.16;4398272;32;20093;-75
2021/06/26 07:45:48;;;;;;;9.52;1.80;;;;;;;27.05;33.69;101124.00;4398821;32;20030;-75
2021/06/26 07:48:14;;;;;;;2.30;1.62;;;;;;;27.20;33.55;101121.44;4396804;32;20034;-72
2021/06/26 07:50:40;;;;;;;1.98;1.10;;;;;;;27.26;33.30;101121.41;4394972;32;20074;-75
2021/06/26 07:53:05;;;;;;;3.30;1.45;;;;;;;27.43;32.38;101119.84;4398772;32;20080;-74
2021/06/26 07:55:31;;;;;;;2.03;0.82;;;;;;;27.51;32.44;101122.88;4400561;32;20147;-74
2021/06/26 07:57:57;;;;;;;1.50;0.90;;;;;;;27.54;32.07;101125.47;4397273;32;20110;-73
2021/06/26 08:00:23;;;;;;;2.60;1.05;;;;;;;27.37;32.32;101130.72;4397354;32;20085;-75
2021/06/26 08:02:48;;;;;;;2.42;0.90;;;;;;;27.60;31.60;101128.25;4406915;32;20127;-75
2021/06/26 08:05:14;;;;;;;1.00;0.70;;;;;;;26.39;33.21;101113.19;4414369;32;20474;-75
2021/06/26 08:07:40;;;;;;;2.90;1.00;;;;;;;26.82;32.90;101128.50;4410468;32;20038;-75
2021/06/26 08:10:06;;;;;;;3.78;1.20;;;;;;;26.01;33.76;101123.00;4412624;32;20080;-74
2021/06/26 08:12:33;;;;;;;3.55;1.08;;;;;;;26.85;32.67;101131.06;4413802;32;20122;-75
2021/06/26 08:14:58;;;;;;;2.70;1.45;;;;;;;27.20;32.79;101127.22;4415150;32;20050;-74
2021/06/26 08:17:24;;;;;;;1.23;1.02;;;;;;;27.25;32.35;101135.06;4410158;32;20111;-73
2021/06/26 08:19:50;;;;;;;2.83;0.88;;;;;;;26.88;33.22;101138.66;4413426;32;20104;-74
2021/06/26 08:22:16;;;;;;;2.95;1.10;;;;;;;27.29;31.95;101141.31;4409614;32;20041;-75
2021/06/26 08:24:42;;;;;;;3.55;0.73;;;;;;;27.41;31.94;101139.84;4412933;32;20085;-73
2021/06/26 08:27:08;;;;;;;1.33;0.70;;;;;;;27.59;31.42;101139.06;4401602;32;20041;-75
2021/06/26 08:29:34;;;;;;;1.65;0.80;;;;;;;27.88;31.15;101146.78;4412570;32;20045;-72
2021/06/26 08:32:00;;;;;;;2.53;0.93;;;;;;;27.97;30.61;101157.97;4409345;32;20100;-73
2021/06/26 08:34:27;;;;;;;3.08;1.30;;;;;;;28.00;30.94;101151.06;4414315;32;20046;-73
2021/06/26 08:36:53;;;;;;;2.87;1.33;;;;;;;27.83;31.69;101146.84;4411663;32;20049;-73
2021/06/26 08:39:20;;;;;;;5.35;1.40;;;;;;;27.98;31.21;101150.84;4411532;32;20093;-75
2021/06/26 08:41:48;;;;;;;3.37;1.98;;;;;;;28.29;30.71;101149.28;4410126;32;20053;-73
2021/06/26 08:44:17;;;;;;;6.15;2.20;;;;;;;28.37;30.74;101148.06;4410448;32;20033;-75
2021/06/26 08:46:45;;;;;;;3.03;2.28;;;;;;;28.22;30.98;101150.69;4410822;32;20069;-75
2021/06/26 08:49:11;;;;;;;3.03;1.85;;;;;;;28.51;30.66;101151.81;4410553;32;20483;-72
2021/06/26 08:51:38;;;;;;;3.55;2.40;;;;;;;28.30;31.00;101154.53;4409261;32;20084;-74
2021/06/26 08:54:10;;;;;;;5.12;2.40;;;;;;;28.53;30.81;101154.94;4415322;32;20058;-73
2021/06/26 08:56:36;;;;;;;3.70;2.20;;;;;;;28.55;30.76;101160.94;4412489;32;20073;-75
2021/06/26 08:59:02;;;;;;;2.50;2.05;;;;;;;28.49;30.57;101169.72;4413798;32;20085;-75
2021/06/26 09:01:27;;;;;;;5.60;2.15;;;;;;;28.57;30.52;101161.16;4409930;32;20068;-73
2021/06/26 09:04:03;;;;;;;6.53;2.20;;;;;;;28.58;30.11;101162.72;4409460;32;20078;-73
2021/06/26 09:06:32;;;;;;;3.35;2.20;;;;;;;29.19;29.83;101161.53;4412557;32;20026;-74
2021/06/26 09:08:58;;;;;;;2.60;2.40;;;;;;;29.05;29.94;101175.25;4411899;32;20092;-75
2021/06/26 09:11:25;;;;;;;2.95;2.45;;;;;;;29.07;29.69;101175.50;4411093;32;20115;-75
2021/06/26 09:13:52;;;;;;;3.35;2.62;;;;;;;28.17;31.04;101165.28;4412301;32;20089;-75
2021/06/26 09:16:20;;;;;;;3.65;2.50;;;;;;;28.66;30.73;101167.28;4412117;32;20117;-73
2021/06/26 09:18:48;;;;;;;3.58;2.28;;;;;;;28.73;30.92;101172.44;4410057;32;20049;-72
2021/06/26 09:24:09;;;;;;;4.82;2.10;;;;;;;30.24;29.06;101169.44;3984198;32;15075340;-73
2021/06/26 09:26:37;;;;;;;3.08;2.00;;;;;;;30.24;29.06;101169.44;4436344;32;20091;-72
2021/06/26 09:29:13;;;;;;;4.53;2.17;;;;;;;29.71;28.89;101165.16;4435034;32;20777;-73
2021/06/26 09:32:00;;;;;;;3.37;2.22;;;;;;;29.95;28.95;101161.16;4434762;32;20498;-73
2021/06/26 09:34:43;;;;;;;6.35;2.30;;;;;;;29.96;28.71;101159.81;4430074;32;20094;-73
2021/06/26 09:37:13;;;;;;;2.92;2.47;;;;;;;30.09;28.40;101165.56;4437568;32;20500;-73
2021/06/26 09:39:41;;;;;;;6.03;2.83;;;;;;;29.79;28.79;101162.34;4439407;32;20480;-72
2021/06/26 09:45:03;;;;;;;4.65;2.72;;;;;;;30.26;28.22;101169.66;3984769;32;15023741;-74
2021/06/26 09:47:35;;;;;;;3.50;2.70;;;;;;;30.26;28.22;101169.66;4439474;32;20059;-74
2021/06/26 10:00:47;;;;;;;7.43;3.05;;;;;;;29.56;29.17;101175.75;3979898;32;15024071;-75
2021/06/26 10:03:17;;;;;;;4.62;3.25;;;;;;;29.56;29.17;101175.75;4428646;32;20775;-75
2021/06/26 10:05:44;;;;;;;4.35;3.08;;;;;;;29.48;29.07;101181.47;4434678;32;20068;-75
2021/06/26 10:08:10;;;;;;;6.85;3.15;;;;;;;29.16;29.77;101182.94;4429388;32;20689;-73
2021/06/26 10:10:36;;;;;;;3.30;2.83;;;;;;;28.51;30.45;101169.19;4428040;32;20666;-75
2021/06/26 10:13:03;;;;;;;5.35;3.35;;;;;;;29.12;29.73;101180.41;4428515;32;20057;-73
2021/06/26 10:15:32;;;;;;;4.30;3.58;;;;;;;28.74;30.50;101179.00;4431173;32;20087;-75
2021/06/26 10:17:58;;;;;;;4.32;3.92;;;;;;;28.71;30.33;101183.81;4420902;32;20085;-75
2021/06/26 10:20:25;;;;;;;5.57;3.40;;;;;;;29.01;29.99;101181.38;4428831;32;20058;-75
2021/06/26 10:22:55;;;;;;;6.50;3.90;;;;;;;29.15;29.89;101190.09;4431689;32;20033;-74
2021/06/26 10:25:27;;;;;;;4.22;3.80;;;;;;;29.35;29.60;101192.31;4432014;32;20029;-74
2021/06/26 10:28:14;;;;;;;4.05;2.80;;;;;;;29.43;29.19;101193.19;4428032;32;20191;-75
2021/06/26 10:30:41;;;;;;;4.05;2.97;;;;;;;29.77;28.88;101194.84;4427502;32;20077;-75
2021/06/26 10:33:09;;;;;;;3.95;2.85;;;;;;;30.10;28.48;101199.06;4431776;32;20268;-75
2021/06/26 10:35:39;;;;;;;3.40;2.85;;;;;;;30.37;27.89;101203.44;4427688;32;20077;-73
2021/06/26 10:43:33;;;;;;;6.00;2.83;;;;;;;31.27;26.74;101215.81;3988363;32;15023880;-74
2021/06/26 10:46:15;;;;;;;7.50;3.12;;;;;;;31.27;26.74;101215.81;4438934;32;20047;-74
2021/06/26 10:48:55;;;;;;;4.47;2.70;;;;;;;31.00;26.78;101223.16;4436261;32;20304;-73
2021/06/26 10:51:35;;;;;;;3.80;2.25;;;;;;;30.95;27.25;101227.00;4429983;32;20073;-74
2021/06/26 10:54:11;;;;;;;3.58;2.60;;;;;;;30.98;26.95;101222.97;4438590;32;20111;-74
2021/06/26 10:56:37;;;;;;;6.72;2.92;;;;;;;30.99;26.76;101220.84;4439145;32;20198;-75
2021/06/26 10:59:20;;;;;;;4.47;2.35;;;;;;;30.76;27.29;101223.56;4439123;32;20069;-74
2021/06/26 11:02:04;;;;;;;8.05;2.55;;;;;;;31.05;26.96;101225.16;4427564;32;20473;-74
2021/06/26 11:04:32;;;;;;;4.70;2.90;;;;;;;31.10;26.68;101232.16;4423049;32;20085;-74
2021/06/26 11:07:07;;;;;;;2.85;2.55;;;;;;;30.37;27.67;101227.44;4425620;32;20108;-73
2021/06/26 11:09:35;;;;;;;5.18;2.50;;;;;;;30.76;27.25;101232.28;4422830;32;20077;-73
2021/06/26 11:12:21;;;;;;;4.47;3.65;;;;;;;30.27;28.06;101222.69;4422826;32;20141;-73
2021/06/26 11:14:52;;;;;;;7.55;3.15;;;;;;;30.51;27.50;101233.97;4424494;32;20434;-73
2021/06/26 11:17:21;;;;;;;6.60;3.15;;;;;;;30.41;28.01;101235.81;4422631;32;20098;-74
2021/06/26 11:19:47;;;;;;;6.35;2.58;;;;;;;30.62;27.78;101233.69;4421982;32;20110;-73
2021/06/26 11:22:14;;;;;;;5.05;2.37;;;;;;;30.60;27.70;101227.66;4420940;32;20042;-74
2021/06/26 11:24:42;;;;;;;4.65;3.12;;;;;;;30.17;28.14;101236.91;4423551;32;20411;-75
2021/06/26 11:27:13;;;;;;;4.55;2.92;;;;;;;30.36;27.87;101236.72;4423576;32;20086;-74
2021/06/26 11:29:42;;;;;;;8.00;3.30;;;;;;;30.60;27.91;101233.47;4421122;32;20430;-74
2021/06/26 11:32:26;;;;;;;4.07;3.17;;;;;;;30.87;27.58;101231.19;4422943;32;20037;-73
2021/06/26 11:37:33;;;;;;;5.65;3.03;;;;;;;32.33;25.52;101223.63;3957916;32;15728631;-76
2021/06/26 11:40:00;;;;;;;6.53;2.80;;;;;;;32.33;25.52;101223.63;4438655;32;20771;-73
2021/06/26 11:42:26;;;;;;;3.60;2.30;;;;;;;32.24;25.41;101238.00;4435632;32;20013;-74
2021/06/26 11:44:52;;;;;;;4.65;2.58;;;;;;;32.54;24.71;101233.00;4434162;32;20034;-76
2021/06/26 11:47:26;;;;;;;4.32;2.90;;;;;;;33.09;24.54;101241.97;4418571;32;20037;-72
2021/06/26 11:49:51;;;;;;;3.92;2.85;;;;;;;32.87;24.54;101227.41;4431045;32;20095;-73